Meny       Start   X °F

Select another period ( hide this area )

Units Period Custom range Directly to
Metric English Both
Daily Weekly Monthly Yearly
use both date-selectors for a custom range
previous Day
With this date
Daily Summary for Saturday 25 May 2024
Time Temp. ( °F ) Dew pt. ( °F ) Wind ( mph ) From Gust ( mph ) Pressure ( in ) Humid.( % ) Rainrate ( in )
High77.9 70.7 3.0 WSW ( 73/73 ) 3.0 29.99 99 1.89
Average64.7 63.4 0.4 Calm #137/201 0.6 29.90 96 1.30
Low60.3 59.9 -   0.0 29.85 76 -
Daily Tabular details for Saturday 25 May 2024
Time Temp. ( °F ) Dew pt. ( °F ) Wind ( mph ) From Gust ( mph ) Pressure ( in ) Humid.( % ) Rainrate ( in )
00:04 65.3 63.9   Calm   29.89 95 -
00:09 65.1 63.7   Calm   29.90 95 -
00:14 65.1 64.0   Calm   29.90 96 -
00:19 64.8 63.7   Calm   29.89 96 -
00:24 64.6 63.1   Calm   29.89 95 -
00:29 64.8 63.3   Calm   29.89 95 -
00:34 64.9 63.0   Calm   29.90 94 -
00:39 65.1 63.7   Calm   29.89 95 -
00:44 65.1 63.7   Calm   29.89 95 -
00:49 65.3 64.0 1.0 WSW 1.0 29.90 96 -
00:54 65.3 63.9 1.0 WSW 1.0 29.89 95 -
00:59 65.1 63.7   Calm   29.89 95 -
01:04 65.1 63.1   Calm   29.89 94 -
01:09 64.9 63.0   Calm   29.89 94 -
01:14 65.1 63.7   Calm   29.89 95 -
01:19 65.1 63.7   Calm   29.89 95 -
01:24 65.1 63.9   Calm   29.90 96 -
01:29 64.9 63.9   Calm   29.89 96 -
01:34 64.9 63.9   Calm   29.89 96 -
01:39 64.8 63.7   Calm   29.89 96 -
01:44 64.8 63.7   Calm   29.89 96 -
01:49 64.8 63.7   Calm   29.89 96 -
01:54 64.6 63.5   Calm   29.89 96 -
01:59 64.2 63.1   Calm   29.88 96 -
02:04 64.2 63.1   Calm   29.88 96 -
02:09 64.0 63.3   Calm   29.88 97 -
02:14 63.7 63.0   Calm   29.88 97 -
02:19 63.3 62.6   Calm   29.87 97 -
02:24 63.0 62.2   Calm   29.87 97 -
02:29 63.0 62.2   Calm   29.87 97 -
02:34 62.8 62.1   Calm 1.0 29.87 97 -
02:39 62.8 62.1   Calm   29.87 97 -
02:44 62.8 62.1   Calm   29.87 97 -
02:49 62.8 62.1 1.0 WSW 1.0 29.86 98 -
02:54 62.8 62.2 1.0 WSW 1.0 29.87 98 -
02:59 62.8 62.1   Calm   29.87 97 -
03:04 62.6 62.1   Calm   29.87 98 -
03:09 62.6 62.1   Calm   29.87 98 -
03:14 62.6 62.1   Calm   29.86 98 -
03:19 62.6 62.1 1.0 WSW 1.0 29.86 98 -
03:24 62.4 61.9   Calm 1.0 29.86 98 -
03:29 62.2 61.7   Calm   29.87 98 -
03:34 62.1 61.5   Calm   29.87 98 -
03:39 61.9 61.3   Calm   29.86 98 -
03:44 61.9 61.3   Calm   29.86 98 -
03:49 61.7 61.2   Calm   29.87 98 -
03:54 61.7 61.2   Calm   29.87 99 -
03:59 61.5 61.2   Calm   29.88 99 -
04:04 61.3 61.0   Calm   29.87 99 -
04:09 61.2 60.8   Calm   29.88 99 -
04:14 61.0 60.6   Calm   29.88 99 -
04:19 61.2 60.8   Calm   29.87 99 -
04:24 61.2 60.8   Calm   29.87 99 -
04:29 61.2 60.8   Calm   29.87 99 -
04:34 61.3 61.0   Calm   29.87 99 -
04:39 61.7 61.3   Calm   29.87 99 -
04:44 61.5 61.2 1.0 WSW 1.0 29.87 99 -
04:49 61.2 60.8   Calm 1.0 29.86 99 -
04:54 61.2 60.8   Calm   29.87 99 -
04:59 61.2 60.8   Calm   29.87 99 -
05:04 61.0 60.6   Calm   29.87 99 -
05:09 60.8 60.4   Calm   29.87 99 -
05:14 60.6 60.3   Calm   29.88 99 -
05:19 60.4 60.1   Calm 1.0 29.87 99 -
05:24 60.3 59.9   Calm 1.0 29.87 99 -
05:29 60.4 60.1   Calm   29.87 99 -
05:34 60.6 60.3   Calm   29.87 99 -
05:39 60.8 60.4   Calm   29.87 99 -
05:44 60.8 60.4   Calm   29.88 99 -
05:49 60.8 60.4   Calm   29.88 99 -
05:54 60.6 60.3   Calm   29.87 99 -
05:59 60.6 60.3   Calm   29.88 99 -
06:04 60.6 60.3   Calm   29.88 99 -
06:09 60.6 60.3   Calm   29.87 99 -
06:14 60.4 60.1   Calm   29.87 99 -
06:19 60.4 60.1   Calm   29.87 99 -
06:24 60.6 60.3   Calm   29.87 99 -
06:29 60.6 60.3   Calm   29.88 99 -
06:34 60.6 60.3   Calm   29.87 99 -
06:39 60.6 60.3   Calm   29.87 99 -
06:44 61.0 60.6   Calm   29.87 99 -
06:49 61.0 60.6   Calm   29.87 99 -
06:54 61.0 60.6   Calm   29.88 99 -
06:59 60.8 60.4   Calm   29.88 99 -
07:04 61.5 61.2 1.0 WSW 1.0 29.87 99 -
07:09 61.5 61.2 1.0 WSW 1.0 29.87 99 -
07:14 61.2 60.8 1.0 WSW 1.0 29.87 99 -
07:19 61.5 61.2 1.0 WSW 1.0 29.88 99 -
07:24 61.5 61.2   Calm   29.88 99 -
07:29 61.7 61.3   Calm 1.0 29.88 99 -
07:34 61.9 61.5   Calm 1.0 29.88 99 -
07:39 61.9 61.5   Calm   29.88 99 -
07:44 62.1 61.7   Calm   29.88 99 -
07:49 62.1 61.7   Calm   29.88 99 -
07:54 62.1 61.7   Calm   29.89 99 -
07:59 62.1 61.7   Calm   29.89 99 -
08:04 62.1 61.7 1.0 WSW 1.0 29.89 99 -
08:09 62.4 62.1 2.0 WSW 2.0 29.88 99 -
08:14 62.4 62.1 1.0 WSW 1.0 29.89 99 -
08:19 62.4 62.1   Calm   29.89 99 -
08:24 62.4 62.1 1.0 WSW 1.0 29.90 99 -
08:29 62.4 62.1   Calm 1.0 29.90 99 -
08:34 62.4 62.1   Calm 1.0 29.89 99 -
08:39 62.6 62.2 1.0 WSW 1.0 29.89 99 0.05
08:44 62.6 62.2 1.0 WSW 2.0 29.90 99 0.33
08:49 62.6 62.2   Calm 1.0 29.90 99 0.50
08:54 62.8 62.4 2.0 WSW 2.0 29.92 99 0.64
08:59 63.1 62.8 2.0 WSW 2.0 29.92 99 0.83
09:04 63.1 62.8 1.0 WSW 2.0 29.91 99 1.13
09:09 63.0 62.6 1.0 WSW 2.0 29.91 99 1.13
09:14 62.8 62.4 2.0 WSW 2.0 29.92 99 0.92
09:19 62.8 62.4 2.0 WSW 2.0 29.93 99 1.72
09:24 62.8 62.4 1.0 WSW 1.0 29.93 99 1.89
09:29 63.0 62.6   Calm 1.0 29.93 99 1.77
09:34 63.0 62.6 1.0 WSW 2.0 29.93 99 0.38
09:39 63.0 62.6 1.0 WSW 1.0 29.94 99 0.28
09:44 63.0 62.6 1.0 WSW 1.0 29.94 99 0.12
09:49 63.0 62.6 1.0 WSW 1.0 29.94 99 0.09
09:54 63.0 62.6   Calm   29.94 99 0.17
09:59 62.8 62.4   Calm   29.94 99 0.28
10:04 62.6 62.2   Calm 1.0 29.95 99 0.43
10:09 62.2 61.9 1.0 WSW 1.0 29.96 99 1.13
10:14 62.2 61.9   Calm 1.0 29.97 99 1.63
10:19 62.4 62.1   Calm   29.97 99 1.72
10:24 62.4 62.1 1.0 WSW 1.0 29.98 99 1.47
10:29 62.4 62.1 1.0 WSW 1.0 29.99 99 1.09
10:34 62.4 62.1   Calm 1.0 29.99 99 0.80
10:39 62.4 62.1 1.0 WSW 1.0 29.99 99 0.61
10:44 62.4 62.1   Calm 1.0 29.99 99 0.38
10:49 62.2 61.9   Calm   29.99 99 0.21
10:54 62.1 61.7   Calm   29.99 99 0.26
10:59 62.1 61.7   Calm   29.98 99 0.43
11:04 62.1 61.7   Calm   29.98 99 0.54
11:09 62.1 61.7   Calm   29.97 99 0.54
11:14 61.9 61.5   Calm   29.97 99 0.50
11:19 61.9 61.5   Calm   29.97 99 0.50
11:24 61.9 61.5   Calm   29.97 99 0.47
11:29 61.9 61.5   Calm   29.96 99 0.33
11:34 61.9 61.5   Calm   29.96 99 0.21
11:39 62.1 61.7   Calm 1.0 29.96 99 0.12
11:44 62.1 61.7   Calm 1.0 29.95 99 0.12
11:49 62.1 61.7 1.0 WSW 2.0 29.93 99 0.07
11:54 62.2 61.9 1.0 WSW 1.0 29.93 99 0.05
11:59 62.2 61.9 1.0 WSW 1.0 29.93 99 0.05
12:04 62.6 62.2 1.0 WSW 1.0 29.93 99 -
12:09 63.0 62.6 1.0 WSW 1.0 29.92 99 -
12:14 63.0 62.6   Calm   29.92 99 -
12:19 63.3 63.0   Calm   29.91 99 -
12:24 63.5 63.1 1.0 WSW 1.0 29.91 99 -
12:29 64.4 64.0 1.0 WSW 2.0 29.93 99 -
12:34 64.6 64.2   Calm 1.0 29.93 99 -
12:39 64.8 64.4   Calm   29.92 99 -
12:44 64.8 64.4   Calm   29.92 99 -
12:49 64.6 64.2   Calm   29.92 99 -
12:54 64.6 64.2   Calm 1.0 29.92 99 -
12:59 64.4 64.0 1.0 WSW 1.0 29.91 99 -
13:04 64.8 64.4   Calm 1.0 29.91 99 -
13:09 65.3 64.9   Calm   29.89 99 -
13:14 65.1 64.8   Calm   29.88 99 -
13:19 64.9 64.6 3.0 WSW 3.0 29.90 99 -
13:24 65.5 65.1 2.0 WSW 2.0 29.90 99 -
13:29 66.2 65.8 2.0 WSW 2.0 29.91 99 -
13:34 66.6 66.2 1.0 WSW 1.0 29.91 99 -
13:39 66.6 66.2   Calm 1.0 29.90 99 -
13:44 66.4 66.0 1.0 WSW 1.0 29.90 99 -
13:49 67.3 66.9 1.0 WSW 1.0 29.90 99 -
13:54 68.2 67.8   Calm   29.89 99 -
13:59 68.2 67.8   Calm 1.0 29.89 99 -
14:04 69.3 68.9   Calm   29.89 99 -
14:09 69.3 68.9 1.0 WSW 1.0 29.88 99 -
14:14 69.4 68.9 1.0 WSW 1.0 29.88 99 -
14:19 69.4 68.7   Calm 1.0 29.87 98 -
14:24 70.0 69.3   Calm 1.0 29.87 98 -
14:29 69.8 68.4   Calm   29.87 96 -
14:34 69.8 67.8 1.0 WSW 1.0 29.87 95 -
14:39 70.2 68.2 1.0 WSW 2.0 29.87 95 -
14:44 70.9 68.5 1.0 WSW 1.0 29.87 93 -
14:49 71.2 68.7 1.0 WSW 1.0 29.87 92 -
14:54 72.1 68.2 1.0 WSW 1.0 29.87 90 -
14:59 73.8 67.6   Calm   29.87 84 -
15:04 74.1 69.1   Calm 1.0 29.87 84 -
15:09 74.7 69.4 1.0 WSW 1.0 29.86 84 -
15:14 75.4 70.0   Calm 1.0 29.86 84 -
15:19 75.4 68.5 1.0 WSW 1.0 29.86 79 -
15:24 75.9 70.2 1.0 WSW 1.0 29.86 83 -
15:29 76.5 70.5 1.0 WSW 1.0 29.86 82 -
15:34 76.8 68.5 1.0 WSW 1.0 29.86 76 -
15:39 76.8 69.4   Calm 1.0 29.86 78 -
15:44 77.0 70.7   Calm 1.0 29.86 81 -
15:49 77.0 70.2 1.0 WSW 2.0 29.86 80 -
15:54 76.8 69.4 1.0 WSW 1.0 29.86 78 -
15:59 76.8 69.8   Calm   29.86 79 -
16:04 76.8 70.0   Calm 1.0 29.86 79 -
16:09 76.8 69.8 1.0 WSW 1.0 29.86 79 -
16:14 76.6 69.4 1.0 WSW 1.0 29.86 79 -
16:19 76.3 69.4 1.0 WSW 1.0 29.86 79 -
16:24 76.5 69.8   Calm 1.0 29.85 80 -
16:29 76.5 69.6   Calm 1.0 29.86 79 -
16:34 76.5 69.6 1.0 WSW 1.0 29.86 79 -
16:39 76.5 69.8 1.0 WSW 1.0 29.85 80 -
16:44 77.9 70.7   Calm   29.86 81 -

Download your copy of this data-set  from WeatherUnderground

Our weather-data as stored at Weather Underground

Original Weather Page

My Ham Radio Page